Time,TemperatureF,DewpointF,PressureIn,WindDirection,WindDirectionDegrees,WindSpeedMPH,WindSpeedGustMPH,Humidity,HourlyPrecipIn,Conditions,Clouds,dailyrainin,SoftwareType,DateUTC
2013-09-06 00:00:00,75.0,58.0,-100.00,SSE,153,2.0,-999.0,55,0.00,,,-99.99,,2013-09-06 07:00:00,
2013-09-06 00:42:00,75.0,58.0,-100.00,SSE,153,2.0,-999.0,55,0.00,,,-99.99,,2013-09-06 07:42:00,
2013-09-06 00:52:00,75.0,58.0,-100.00,SSE,153,2.0,-999.0,55,0.00,,,-99.99,,2013-09-06 07:52:00,
2013-09-06 01:00:00,73.0,57.0,-100.00,SW,232,2.0,-999.0,57,0.00,,,-99.99,,2013-09-06 08:00:00,
2013-09-06 01:42:00,73.0,57.0,-100.00,SW,232,2.0,-999.0,57,0.00,,,-99.99,,2013-09-06 08:42:00,
2013-09-06 01:52:00,73.0,57.0,-100.00,SW,232,2.0,-999.0,57,0.00,,,-99.99,,2013-09-06 08:52:00,
2013-09-06 02:00:00,71.0,54.0,-100.00,WNW,290,2.0,-999.0,55,0.00,,,-99.99,,2013-09-06 09:00:00,
2013-09-06 02:43:00,71.0,54.0,-100.00,WNW,290,2.0,-999.0,55,0.00,,,-99.99,,2013-09-06 09:43:00,
2013-09-06 02:53:00,71.0,54.0,-100.00,WNW,290,2.0,-999.0,55,0.00,,,-99.99,,2013-09-06 09:53:00,
2013-09-06 03:00:00,69.0,53.0,-100.00,WNW,285,4.0,-999.0,55,0.00,,,-99.99,,2013-09-06 10:00:00,
2013-09-06 03:43:00,69.0,53.0,-100.00,WNW,285,4.0,-999.0,55,0.00,,,-99.99,,2013-09-06 10:43:00,
2013-09-06 03:53:00,69.0,53.0,-100.00,WNW,285,4.0,-999.0,55,0.00,,,-99.99,,2013-09-06 10:53:00,
2013-09-06 06:00:00,63.0,54.0,-100.00,SSE,150,4.0,-999.0,71,0.00,,,-99.99,,2013-09-06 13:00:00,
2013-09-06 06:42:00,63.0,54.0,-100.00,SSE,150,4.0,-999.0,71,0.00,,,-99.99,,2013-09-06 13:42:00,
2013-09-06 06:52:00,63.0,54.0,-100.00,SSE,150,4.0,-999.0,71,0.00,,,-99.99,,2013-09-06 13:52:00,
2013-09-06 07:00:00,62.0,53.0,-100.00,SE,144,3.0,-999.0,73,0.00,,,-99.99,,2013-09-06 14:00:00,
2013-09-06 07:42:00,62.0,53.0,-100.00,SE,144,3.0,-999.0,73,0.00,,,-99.99,,2013-09-06 14:42:00,
2013-09-06 07:52:00,62.0,53.0,-100.00,SE,144,3.0,-999.0,73,0.00,,,-99.99,,2013-09-06 14:52:00,
2013-09-06 08:00:00,66.0,52.0,-100.00,SSE,164,5.0,-999.0,61,0.00,,,-99.99,,2013-09-06 15:00:00,
2013-09-06 08:43:00,66.0,52.0,-100.00,SSE,164,5.0,-999.0,61,0.00,,,-99.99,,2013-09-06 15:43:00,
2013-09-06 08:53:00,66.0,52.0,-100.00,SSE,164,5.0,-999.0,61,0.00,,,-99.99,,2013-09-06 15:53:00,
2013-09-06 09:00:00,70.0,51.0,-100.00,South,184,5.0,-999.0,51,0.00,,,-99.99,,2013-09-06 16:00:00,
2013-09-06 09:43:00,70.0,51.0,-100.00,South,184,5.0,-999.0,51,0.00,,,-99.99,,2013-09-06 16:43:00,
2013-09-06 09:53:00,70.0,51.0,-100.00,South,184,5.0,-999.0,51,0.00,,,-99.99,,2013-09-06 16:53:00,
2013-09-06 10:00:00,75.0,52.0,-100.00,SSW,203,6.0,-999.0,44,0.00,,,-99.99,,2013-09-06 17:00:00,
2013-09-06 10:43:00,75.0,52.0,-100.00,SSW,203,6.0,-999.0,44,0.00,,,-99.99,,2013-09-06 17:43:00,
2013-09-06 10:53:00,75.0,52.0,-100.00,SSW,203,6.0,-999.0,44,0.00,,,-99.99,,2013-09-06 17:53:00,
2013-09-06 11:00:00,79.0,52.0,-100.00,SSW,209,4.0,-999.0,40,0.00,,,-99.99,,2013-09-06 18:00:00,
2013-09-06 11:42:00,79.0,52.0,-100.00,SSW,209,4.0,-999.0,40,0.00,,,-99.99,,2013-09-06 18:42:00,
2013-09-06 11:52:00,79.0,52.0,-100.00,SSW,209,4.0,-999.0,40,0.00,,,-99.99,,2013-09-06 18:52:00,
2013-09-06 12:00:00,81.0,53.0,-100.00,SSE,154,4.0,-999.0,37,0.00,,,-99.99,,2013-09-06 19:00:00,
2013-09-06 12:43:00,81.0,53.0,-100.00,SSE,154,4.0,-999.0,37,0.00,,,-99.99,,2013-09-06 19:43:00,
2013-09-06 12:52:00,81.0,53.0,-100.00,SSE,154,4.0,-999.0,37,0.00,,,-99.99,,2013-09-06 19:52:00,
2013-09-06 13:00:00,84.0,52.0,-100.00,SW,222,7.0,-999.0,33,0.00,,,-99.99,,2013-09-06 20:00:00,
2013-09-06 13:42:00,84.0,52.0,-100.00,SW,222,7.0,-999.0,33,0.00,,,-99.99,,2013-09-06 20:42:00,
2013-09-06 13:52:00,84.0,52.0,-100.00,SW,222,7.0,-999.0,33,0.00,,,-99.99,,2013-09-06 20:52:00,
2013-09-06 14:00:00,87.0,53.0,-100.00,West,279,4.0,-999.0,32,0.00,,,-99.99,,2013-09-06 21:00:00,
2013-09-06 14:43:00,87.0,53.0,-100.00,West,279,4.0,-999.0,32,0.00,,,-99.99,,2013-09-06 21:43:00,
2013-09-06 14:54:00,87.0,53.0,-100.00,West,279,4.0,-999.0,32,0.00,,,-99.99,,2013-09-06 21:54:00,
2013-09-06 15:00:00,88.0,55.0,-100.00,WNW,298,2.0,-999.0,32,0.00,,,-99.99,,2013-09-06 22:00:00,
2013-09-06 15:44:00,88.0,55.0,-100.00,WNW,298,2.0,-999.0,32,0.00,,,-99.99,,2013-09-06 22:44:00,
2013-09-06 15:53:00,88.0,55.0,-100.00,WNW,298,2.0,-999.0,32,0.00,,,-99.99,,2013-09-06 22:53:00,
2013-09-06 16:00:00,90.0,55.0,-100.00,NNW,344,4.0,-999.0,30,0.00,,,-99.99,,2013-09-06 23:00:00,
2013-09-06 16:43:00,90.0,55.0,-100.00,NNW,344,4.0,-999.0,30,0.00,,,-99.99,,2013-09-06 23:43:00,
2013-09-06 16:52:00,90.0,55.0,-100.00,NNW,344,4.0,-999.0,30,0.00,,,-99.99,,2013-09-06 23:52:00,
2013-09-06 17:00:00,92.0,54.0,-100.00,NNW,327,4.0,-999.0,28,0.00,,,-99.99,,2013-09-07 00:00:00,
2013-09-06 17:42:00,92.0,54.0,-100.00,NNW,327,4.0,-999.0,28,0.00,,,-99.99,,2013-09-07 00:42:00,
2013-09-06 17:52:00,92.0,54.0,-100.00,NNW,327,4.0,-999.0,28,0.00,,,-99.99,,2013-09-07 00:52:00,
2013-09-06 18:00:00,92.0,56.0,-100.00,West,261,8.0,-999.0,29,0.00,,,-99.99,,2013-09-07 01:00:00,
2013-09-06 18:42:00,92.0,56.0,-100.00,West,261,8.0,-999.0,29,0.00,,,-99.99,,2013-09-07 01:42:00,
2013-09-06 18:53:00,92.0,56.0,-100.00,West,261,8.0,-999.0,29,0.00,,,-99.99,,2013-09-07 01:53:00,
2013-09-06 19:00:00,91.0,57.0,-100.00,West,275,8.0,-999.0,31,0.00,,,-99.99,,2013-09-07 02:00:00,
2013-09-06 19:43:00,91.0,57.0,-100.00,West,275,8.0,-999.0,31,0.00,,,-99.99,,2013-09-07 02:43:00,
2013-09-06 19:52:00,91.0,57.0,-100.00,West,275,8.0,-999.0,31,0.00,,,-99.99,,2013-09-07 02:52:00,
2013-09-06 20:00:00,85.0,60.0,-100.00,SW,214,3.0,-999.0,42,0.00,,,-99.99,,2013-09-07 03:00:00,
2013-09-06 20:45:00,85.0,60.0,-100.00,SW,214,3.0,-999.0,42,0.00,,,-99.99,,2013-09-07 03:45:00,
2013-09-06 20:55:00,85.0,60.0,-100.00,SW,214,3.0,-999.0,42,0.00,,,-99.99,,2013-09-07 03:55:00,
2013-09-06 21:00:00,81.0,60.0,-100.00,South,177,2.0,-999.0,49,0.00,,,-99.99,,2013-09-07 04:00:00,
2013-09-06 21:43:00,81.0,60.0,-100.00,South,177,2.0,-999.0,49,0.00,,,-99.99,,2013-09-07 04:43:00,
2013-09-06 21:54:00,81.0,60.0,-100.00,South,177,2.0,-999.0,49,0.00,,,-99.99,,2013-09-07 04:54:00,
2013-09-06 22:00:00,77.0,60.0,-100.00,SE,133,3.0,-999.0,54,0.00,,,-99.99,,2013-09-07 05:00:00,
2013-09-06 22:42:00,77.0,60.0,-100.00,SE,133,3.0,-999.0,54,0.00,,,-99.99,,2013-09-07 05:42:00,
2013-09-06 22:52:00,77.0,60.0,-100.00,SE,133,3.0,-999.0,54,0.00,,,-99.99,,2013-09-07 05:52:00,
2013-09-06 23:00:00,76.0,59.0,-100.00,SE,145,2.0,-999.0,56,0.00,,,-99.99,,2013-09-07 06:00:00,
2013-09-06 23:43:00,76.0,59.0,-100.00,SE,145,2.0,-999.0,56,0.00,,,-99.99,,2013-09-07 06:43:00,
2013-09-06 23:52:00,76.0,59.0,-100.00,SE,145,2.0,-999.0,56,0.00,,,-99.99,,2013-09-07 06:52:00,